Bismarck, North Dakota
Current Conditions -  °F | °C
As of 9:52 AM on Friday 31 Oct 2014 (Local Time) from KBIS Reporting Station
Clear Clear  
Wind Chill: 13°   Ceiling: Unl
Heat Index: 23°   Visibility: 10mi
Dew Point: 20°   Wind: 9mph
Humidity: 88%   Direction: 140°SE
Pressure: 30.52"   Gusts: NA
Location:  46.81°N, 100.77°W
Report Text: KBIS 311452Z 14008KT 10SM CLR M05/M07 A3052 RMK AO2 SLP362 T10501067 56008
Loading
Personal Weather Stations






























Interactive Weather Map New forecast layout! Learn more

10-Day Weather Forecast

Advertisements
Track Severe Weather on mobile